Time;durP1;ratioP1;P1;durP2;ratioP2;P2;SDS_P1;SDS_P2;PMS_P1;PMS_P2;Temp;Humidity;BMP_temperature;BMP_pressure;BME280_temperature;BME280_humidity;BME280_pressure;Samples;Min_cycle;Max_cycle;Signal;HPM_P1;HPM_P2
2023/12/01 00:02:28;;;;;;;20.83;16.17;;;-3.10;76.90;;;;;;6259513;28;20301;-83
2023/12/01 00:05:31;;;;;;;19.47;15.93;;;-3.10;76.80;;;;;;6262428;28;20283;-85
2023/12/01 00:08:36;;;;;;;23.00;16.37;;;-3.00;76.80;;;;;;6261733;28;20242;-83
2023/12/01 00:11:39;;;;;;;19.97;15.97;;;-3.00;76.70;;;;;;6254257;28;20235;-84
2023/12/01 00:14:42;;;;;;;23.03;17.17;;;-3.00;76.60;;;;;;6253278;28;20284;-83
2023/12/01 00:17:45;;;;;;;22.07;16.87;;;-3.00;76.50;;;;;;6247507;28;20239;-85
2023/12/01 00:20:51;;;;;;;21.53;16.70;;;-3.00;76.00;;;;;;6253429;28;20371;-85
2023/12/01 00:23:56;;;;;;;19.87;15.17;;;-3.00;76.10;;;;;;6252464;28;20963;-84
2023/12/01 00:26:59;;;;;;;23.20;16.07;;;-3.00;75.70;;;;;;6254110;28;20233;-83
2023/12/01 00:30:03;;;;;;;18.97;14.90;;;-3.00;75.30;;;;;;6259520;28;20243;-84
2023/12/01 00:33:06;;;;;;;17.17;14.67;;;-3.10;75.20;;;;;;6245074;28;20235;-83
2023/12/01 00:36:10;;;;;;;20.43;14.70;;;-3.10;75.10;;;;;;6250669;28;20242;-85
2023/12/01 00:39:14;;;;;;;15.10;13.50;;;-3.20;74.90;;;;;;6262143;28;20240;-82
2023/12/01 00:42:18;;;;;;;17.07;13.73;;;-3.20;74.40;;;;;;6260856;28;20230;-84
2023/12/01 00:45:22;;;;;;;18.07;14.20;;;-3.20;74.40;;;;;;6253335;28;20317;-85
2023/12/01 00:48:25;;;;;;;15.57;12.57;;;-3.20;74.40;;;;;;6261271;28;20222;-82
2023/12/01 00:51:28;;;;;;;15.93;13.87;;;-3.30;74.50;;;;;;6247470;28;20265;-82
2023/12/01 00:54:33;;;;;;;14.70;12.00;;;-3.40;74.50;;;;;;6259143;28;20249;-81
2023/12/01 00:57:36;;;;;;;16.87;12.77;;;-3.40;74.50;;;;;;6254963;28;20242;-82
2023/12/01 01:00:40;;;;;;;15.07;13.20;;;-3.50;74.50;;;;;;6263103;28;20244;-81
2023/12/01 01:03:44;;;;;;;13.90;12.50;;;-3.50;74.50;;;;;;6266917;28;20242;-83
2023/12/01 01:06:47;;;;;;;20.60;14.63;;;-3.50;74.50;;;;;;6266838;28;20244;-82
2023/12/01 01:09:51;;;;;;;17.17;14.17;;;-3.50;74.60;;;;;;6263570;28;20359;-85
2023/12/01 01:12:54;;;;;;;18.87;13.10;;;-3.60;74.70;;;;;;6249824;28;20234;-84
2023/12/01 01:15:58;;;;;;;15.20;12.67;;;-3.60;74.60;;;;;;6254753;28;20284;-83
2023/12/01 01:19:01;;;;;;;15.83;12.23;;;-3.60;74.40;;;;;;6264852;28;20850;-84
2023/12/01 01:22:04;;;;;;;15.47;12.87;;;-3.60;74.50;;;;;;6265006;28;20317;-82
2023/12/01 01:25:09;;;;;;;16.90;12.90;;;-3.60;74.40;;;;;;6258334;28;20241;-83
2023/12/01 01:28:13;;;;;;;13.73;12.33;;;-3.60;74.60;;;;;;6253900;28;20545;-82
2023/12/01 01:31:16;;;;;;;13.97;11.97;;;-3.60;74.60;;;;;;6264471;28;20234;-84
2023/12/01 01:34:21;;;;;;;13.67;12.27;;;-3.70;74.70;;;;;;6253694;28;20329;-82
2023/12/01 01:37:26;;;;;;;16.57;13.07;;;-3.80;74.70;;;;;;6255895;28;20230;-83
2023/12/01 01:40:30;;;;;;;13.33;11.57;;;-3.80;74.70;;;;;;6256984;28;20689;-85
2023/12/01 01:43:36;;;;;;;14.73;12.10;;;-3.80;74.70;;;;;;6264602;28;20245;-83
2023/12/01 01:46:40;;;;;;;12.40;11.10;;;-3.80;74.60;;;;;;6263575;28;20245;-82
2023/12/01 01:49:44;;;;;;;13.07;11.40;;;-3.80;74.60;;;;;;6258000;28;20234;-82
2023/12/01 01:52:47;;;;;;;13.97;12.17;;;-3.90;74.60;;;;;;6253836;28;20810;-82
2023/12/01 01:55:51;;;;;;;12.87;11.50;;;-3.90;74.60;;;;;;6250227;28;20299;-82
2023/12/01 01:58:54;;;;;;;12.67;11.37;;;-4.00;74.50;;;;;;6255683;28;20662;-82
2023/12/01 02:02:00;;;;;;;15.43;12.27;;;-4.00;74.60;;;;;;6270004;28;20294;-83
2023/12/01 02:05:12;;;;;;;12.53;11.27;;;-4.10;74.60;;;;;;6244869;28;20299;-84
2023/12/01 02:08:27;;;;;;;14.73;12.60;;;-4.10;74.60;;;;;;6251245;28;20741;-82
2023/12/01 02:11:31;;;;;;;15.17;12.37;;;-4.10;74.70;;;;;;6256028;28;20234;-82
2023/12/01 02:14:34;;;;;;;14.20;12.17;;;-4.10;74.80;;;;;;6251104;28;20245;-84
2023/12/01 02:17:38;;;;;;;13.93;12.43;;;-4.10;74.80;;;;;;6253589;28;20317;-84
2023/12/01 02:20:42;;;;;;;14.70;12.77;;;-4.10;74.80;;;;;;6242717;28;20238;-83
2023/12/01 02:23:46;;;;;;;14.13;11.90;;;-4.20;74.80;;;;;;6248617;28;20292;-83
2023/12/01 02:26:49;;;;;;;14.87;12.10;;;-4.20;74.80;;;;;;6262261;28;20277;-84
2023/12/01 02:29:52;;;;;;;14.50;12.50;;;-4.20;74.80;;;;;;6254661;28;20269;-83
2023/12/01 02:32:55;;;;;;;14.33;12.10;;;-4.20;74.70;;;;;;6258807;28;20363;-85
2023/12/01 02:35:59;;;;;;;16.17;12.73;;;-4.30;74.80;;;;;;6255623;28;20242;-84
2023/12/01 02:39:04;;;;;;;16.07;13.17;;;-4.30;74.80;;;;;;6256413;28;20787;-85
2023/12/01 02:42:09;;;;;;;17.40;13.20;;;-4.30;74.90;;;;;;6261802;28;20230;-84
2023/12/01 02:45:12;;;;;;;19.27;14.23;;;-4.30;75.10;;;;;;6264071;28;20238;-83
2023/12/01 02:48:16;;;;;;;16.07;12.17;;;-4.30;75.20;;;;;;6258149;28;20911;-85
2023/12/01 02:51:20;;;;;;;18.13;13.30;;;-4.30;75.20;;;;;;6255450;28;20674;-84
2023/12/01 02:54:26;;;;;;;14.50;12.80;;;-4.40;75.10;;;;;;6255224;28;20264;-83
2023/12/01 02:57:29;;;;;;;16.73;13.03;;;-4.40;75.00;;;;;;6252410;28;20231;-82
2023/12/01 03:00:32;;;;;;;15.73;13.63;;;-4.40;75.10;;;;;;6258653;28;20265;-84
2023/12/01 03:03:35;;;;;;;18.10;13.60;;;-4.50;75.10;;;;;;6262740;28;20242;-83
2023/12/01 03:06:39;;;;;;;21.20;14.70;;;-4.50;75.10;;;;;;6251497;28;20273;-83
2023/12/01 03:09:43;;;;;;;19.60;14.93;;;-4.60;75.10;;;;;;6256215;28;20549;-85
2023/12/01 03:12:47;;;;;;;18.50;15.23;;;-4.40;74.80;;;;;;6256135;28;20277;-83
2023/12/01 03:15:50;;;;;;;20.40;15.67;;;-4.60;74.70;;;;;;6258018;28;20822;-82
2023/12/01 03:18:54;;;;;;;22.10;15.00;;;-4.60;74.80;;;;;;6239963;28;20231;-83
2023/12/01 03:21:58;;;;;;;18.17;13.80;;;-4.60;74.70;;;;;;6261622;28;20622;-84
2023/12/01 03:25:03;;;;;;;18.03;14.97;;;-4.60;74.80;;;;;;6253067;28;20293;-83
2023/12/01 03:28:06;;;;;;;22.00;16.57;;;-4.60;74.80;;;;;;6253933;28;20238;-83
2023/12/01 03:31:09;;;;;;;23.13;16.67;;;-4.60;74.90;;;;;;6254437;28;20252;-85
2023/12/01 03:34:13;;;;;;;15.93;13.93;;;-4.70;75.00;;;;;;6254039;28;20252;-84
2023/12/01 03:37:16;;;;;;;15.93;13.80;;;-4.70;75.00;;;;;;6247518;28;20822;-83
2023/12/01 03:40:20;;;;;;;14.47;12.50;;;-4.80;75.00;;;;;;6258666;28;20321;-84
2023/12/01 03:43:23;;;;;;;14.43;12.87;;;-4.80;74.90;;;;;;6258987;28;20352;-82
2023/12/01 03:46:26;;;;;;;14.60;13.13;;;-4.80;74.90;;;;;;6238891;28;20246;-83
2023/12/01 03:49:30;;;;;;;17.80;13.10;;;-4.90;74.90;;;;;;6258511;28;20392;-84
2023/12/01 03:52:33;;;;;;;15.20;12.20;;;-4.90;74.80;;;;;;6257095;28;20258;-83
2023/12/01 03:55:37;;;;;;;16.07;12.60;;;-4.90;74.80;;;;;;6254151;28;20717;-84
2023/12/01 03:58:40;;;;;;;14.23;12.00;;;-4.90;74.70;;;;;;6252885;28;20249;-84
2023/12/01 04:01:43;;;;;;;13.67;11.57;;;-5.00;74.70;;;;;;6253324;28;20441;-83
2023/12/01 04:04:46;;;;;;;12.23;11.03;;;-5.00;74.60;;;;;;6256829;28;20251;-83
2023/12/01 04:07:50;;;;;;;12.00;10.77;;;-5.00;74.60;;;;;;6252546;28;20249;-82
2023/12/01 04:10:57;;;;;;;12.77;11.47;;;-5.00;74.60;;;;;;6246186;28;20234;-84
2023/12/01 04:14:00;;;;;;;12.13;11.00;;;-5.00;74.60;;;;;;6253111;28;20862;-83
2023/12/01 04:17:08;;;;;;;12.40;11.13;;;-4.90;74.60;;;;;;6247530;28;20956;-83
2023/12/01 04:20:21;;;;;;;13.13;11.30;;;-4.90;74.60;;;;;;6254314;28;20258;-82
2023/12/01 04:23:26;;;;;;;12.30;11.00;;;-4.90;74.40;;;;;;6249099;28;20600;-83
2023/12/01 04:26:30;;;;;;;13.80;11.47;;;-4.80;74.50;;;;;;6249497;28;20688;-84
2023/12/01 04:29:33;;;;;;;12.07;10.73;;;-4.80;74.40;;;;;;6252432;28;20872;-84
2023/12/01 04:32:36;;;;;;;11.97;10.87;;;-4.80;74.10;;;;;;6239276;28;20233;-83
2023/12/01 04:35:39;;;;;;;11.43;10.33;;;-4.70;74.00;;;;;;6246033;28;20239;-84
2023/12/01 04:38:43;;;;;;;11.53;10.33;;;-4.60;73.60;;;;;;6255805;28;20237;-88
2023/12/01 04:41:48;;;;;;;10.93;9.77;;;-4.60;73.50;;;;;;6254894;28;20241;-80
2023/12/01 04:44:51;;;;;;;10.03;9.10;;;-4.60;73.50;;;;;;6254538;28;20297;-79
2023/12/01 04:47:57;;;;;;;10.83;9.87;;;-4.60;73.30;;;;;;6253281;28;20695;-81
2023/12/01 04:51:01;;;;;;;13.23;10.10;;;-4.60;73.10;;;;;;6256898;28;20262;-81
2023/12/01 04:54:06;;;;;;;10.63;9.63;;;-4.60;72.70;;;;;;6254987;28;20316;-82
2023/12/01 04:57:11;;;;;;;10.43;9.33;;;-4.60;72.90;;;;;;6250308;28;21854;-80
2023/12/01 05:00:20;;;;;;;10.73;9.67;;;-4.60;73.10;;;;;;6257987;28;20297;-82
2023/12/01 05:03:24;;;;;;;10.37;9.37;;;-4.70;73.30;;;;;;6251908;28;20241;-82
2023/12/01 05:06:27;;;;;;;10.67;9.70;;;-4.70;73.50;;;;;;6255137;28;20237;-81
2023/12/01 05:09:30;;;;;;;11.40;10.40;;;-4.70;73.50;;;;;;6254096;28;20928;-81
2023/12/01 05:12:34;;;;;;;10.27;9.30;;;-4.70;73.70;;;;;;6249349;28;20329;-82
2023/12/01 05:15:38;;;;;;;11.20;10.00;;;-4.80;74.00;;;;;;6247993;28;20295;-78
2023/12/01 05:18:41;;;;;;;11.33;10.13;;;-4.90;74.40;;;;;;6245201;28;20242;-80
2023/12/01 05:21:44;;;;;;;10.20;9.33;;;-4.90;74.30;;;;;;6251962;28;20725;-82
2023/12/01 05:24:47;;;;;;;11.60;9.33;;;-4.90;74.30;;;;;;6248672;28;20409;-81
2023/12/01 05:27:53;;;;;;;12.50;9.83;;;-4.80;74.40;;;;;;6256316;28;20650;-80
2023/12/01 05:30:56;;;;;;;9.93;9.03;;;-4.90;74.50;;;;;;6257304;28;20237;-80
2023/12/01 05:33:59;;;;;;;11.43;9.83;;;-4.80;74.60;;;;;;6247449;28;20299;-81
2023/12/01 05:37:12;;;;;;;9.97;9.07;;;-4.80;74.70;;;;;;6246064;28;20237;-82
2023/12/01 05:40:20;;;;;;;10.90;9.80;;;-4.80;74.70;;;;;;6251989;28;20226;-81
2023/12/01 05:43:25;;;;;;;10.73;9.80;;;-4.80;74.80;;;;;;6246604;28;20296;-82
2023/12/01 05:46:28;;;;;;;11.20;9.80;;;-4.80;75.00;;;;;;6254268;28;20245;-80
2023/12/01 05:49:31;;;;;;;11.00;9.90;;;-4.80;75.00;;;;;;6265111;28;20317;-80
2023/12/01 05:52:34;;;;;;;11.23;10.20;;;-4.80;75.00;;;;;;6264581;28;20241;-81
2023/12/01 05:55:38;;;;;;;11.17;10.13;;;-4.80;74.90;;;;;;6263821;28;20668;-81
2023/12/01 05:58:42;;;;;;;11.17;10.07;;;-4.80;75.00;;;;;;6257904;28;20289;-80
2023/12/01 06:01:45;;;;;;;11.30;10.20;;;-4.80;75.00;;;;;;6265812;28;20718;-78
2023/12/01 06:04:49;;;;;;;11.00;9.93;;;-4.90;75.30;;;;;;6260520;28;20226;-78
2023/12/01 06:07:54;;;;;;;13.13;10.63;;;-4.90;75.40;;;;;;6251525;28;20313;-79
2023/12/01 06:10:58;;;;;;;11.90;10.70;;;-4.90;75.30;;;;;;6264172;28;20229;-81
2023/12/01 06:14:02;;;;;;;16.67;11.80;;;-4.90;75.50;;;;;;6263211;28;20997;-80
2023/12/01 06:17:07;;;;;;;15.53;11.00;;;-4.90;75.30;;;;;;6257254;28;20245;-79
2023/12/01 06:20:17;;;;;;;13.60;11.67;;;-4.90;75.60;;;;;;6252106;28;20242;-78
2023/12/01 06:23:21;;;;;;;12.03;10.53;;;-4.90;75.70;;;;;;6259217;28;20369;-78
2023/12/01 06:26:26;;;;;;;11.20;10.10;;;-4.90;75.50;;;;;;6262902;28;20280;-78
2023/12/01 06:29:31;;;;;;;14.17;10.60;;;-4.90;75.70;;;;;;6258664;28;20234;-77
2023/12/01 06:32:36;;;;;;;13.80;11.60;;;-4.90;75.70;;;;;;6264222;28;21014;-79
2023/12/01 06:35:39;;;;;;;14.37;11.77;;;-4.90;75.70;;;;;;6268852;28;20238;-79
2023/12/01 06:38:42;;;;;;;12.83;11.53;;;-4.90;75.80;;;;;;6267401;28;21577;-79
2023/12/01 06:41:46;;;;;;;13.17;11.77;;;-4.80;75.50;;;;;;6254126;28;20312;-80
2023/12/01 06:44:50;;;;;;;16.00;11.73;;;-4.80;75.60;;;;;;6280939;28;20234;-77
2023/12/01 06:47:54;;;;;;;15.07;12.63;;;-4.90;75.80;;;;;;6266630;28;20313;-77
2023/12/01 06:50:57;;;;;;;14.67;12.67;;;-4.90;75.90;;;;;;6261317;28;20741;-82
2023/12/01 06:54:00;;;;;;;15.97;13.67;;;-4.90;76.10;;;;;;6273005;28;20234;-77
2023/12/01 06:57:04;;;;;;;17.20;12.20;;;-4.90;76.20;;;;;;6273253;28;20298;-78
2023/12/01 07:00:28;;;;;;;14.97;12.27;;;-4.80;76.20;;;;;;6252875;28;20241;-80
2023/12/01 07:03:34;;;;;;;14.40;12.43;;;-4.90;76.20;;;;;;6257048;28;20293;-80
2023/12/01 07:06:37;;;;;;;15.03;13.27;;;-4.90;76.10;;;;;;6259289;28;20234;-79
2023/12/01 07:09:43;;;;;;;16.90;12.97;;;-4.90;76.20;;;;;;6262720;28;20311;-78
2023/12/01 07:13:00;;;;;;;15.23;12.60;;;-4.80;76.30;;;;;;6265675;28;20242;-81
2023/12/01 07:16:10;;;;;;;20.30;13.53;;;-4.80;76.20;;;;;;6262334;28;20725;-78
2023/12/01 07:19:14;;;;;;;17.17;12.40;;;-4.80;76.20;;;;;;6255198;28;20245;-78
2023/12/01 07:22:17;;;;;;;23.73;13.67;;;-4.70;76.10;;;;;;6264861;28;20238;-81
2023/12/01 07:25:25;;;;;;;17.77;13.27;;;-4.60;75.70;;;;;;6257882;28;20245;-79
2023/12/01 07:28:30;;;;;;;21.93;13.33;;;-4.60;75.70;;;;;;6255974;28;20231;-79
2023/12/01 07:31:35;;;;;;;18.20;13.40;;;-4.60;75.60;;;;;;6246398;28;20249;-80
2023/12/01 07:34:38;;;;;;;16.07;12.70;;;-4.60;75.50;;;;;;6257496;28;20258;-79
2023/12/01 07:37:42;;;;;;;19.30;13.13;;;-4.60;75.60;;;;;;6252882;28;20255;-79
2023/12/01 07:40:46;;;;;;;17.47;12.83;;;-4.60;75.60;;;;;;6262575;28;20226;-79
2023/12/01 07:43:52;;;;;;;18.70;13.80;;;-4.60;75.40;;;;;;6256276;28;20246;-79
2023/12/01 07:46:56;;;;;;;19.43;13.60;;;-4.60;75.40;;;;;;6249213;28;20321;-80
2023/12/01 07:50:00;;;;;;;18.20;13.37;;;-4.60;75.40;;;;;;6258038;28;20249;-79
2023/12/01 07:53:05;;;;;;;15.70;13.17;;;-4.60;75.30;;;;;;6260756;28;20273;-80
2023/12/01 07:56:10;;;;;;;17.73;13.90;;;-4.60;75.30;;;;;;6255755;28;20304;-80
2023/12/01 07:59:13;;;;;;;15.17;12.90;;;-4.60;75.20;;;;;;6259562;28;20233;-78
2023/12/01 08:02:18;;;;;;;18.87;13.47;;;-4.60;75.10;;;;;;6265943;28;20246;-80
2023/12/01 08:05:21;;;;;;;16.60;12.70;;;-4.40;74.70;;;;;;6266054;28;20234;-79
2023/12/01 08:08:24;;;;;;;18.07;13.40;;;-4.40;74.80;;;;;;6259662;28;20237;-78
2023/12/01 08:11:30;;;;;;;20.23;12.57;;;-4.30;74.60;;;;;;6261570;28;20304;-81
2023/12/01 08:14:33;;;;;;;17.67;13.10;;;-4.30;74.30;;;;;;6253082;28;20234;-81
2023/12/01 08:17:38;;;;;;;16.67;13.63;;;-4.30;73.80;;;;;;6248703;28;20242;-82
2023/12/01 08:20:42;;;;;;;15.80;14.00;;;-4.30;73.90;;;;;;6256341;28;20340;-79
2023/12/01 08:23:49;;;;;;;18.07;13.73;;;-4.20;74.20;;;;;;6253384;28;20334;-78
2023/12/01 08:26:52;;;;;;;14.87;13.37;;;-4.10;73.90;;;;;;6253503;28;20238;-79
2023/12/01 08:29:55;;;;;;;17.37;14.63;;;-4.10;73.80;;;;;;6259826;28;20234;-80
2023/12/01 08:33:00;;;;;;;16.23;13.97;;;-3.90;73.90;;;;;;6250652;28;20245;-80
2023/12/01 08:36:07;;;;;;;19.03;14.00;;;-3.70;74.10;;;;;;6258554;28;20321;-80
2023/12/01 08:39:10;;;;;;;16.03;13.10;;;-3.50;73.70;;;;;;6256970;28;20233;-79
2023/12/01 08:42:13;;;;;;;15.63;13.13;;;-3.30;72.90;;;;;;6251039;28;20265;-83
2023/12/01 08:45:16;;;;;;;16.50;13.40;;;-3.20;72.20;;;;;;6259877;28;20320;-80
2023/12/01 08:48:21;;;;;;;16.00;13.37;;;-3.40;71.90;;;;;;6253451;28;20261;-81
2023/12/01 08:51:24;;;;;;;16.33;13.47;;;-3.30;72.20;;;;;;6258675;28;20246;-79
2023/12/01 08:54:27;;;;;;;15.03;13.43;;;-3.20;72.30;;;;;;6260497;28;20325;-81
2023/12/01 08:57:32;;;;;;;17.43;13.83;;;-3.00;71.50;;;;;;6254769;28;20262;-81
2023/12/01 09:00:36;;;;;;;17.97;14.20;;;-2.80;70.70;;;;;;6257494;28;20460;-80
2023/12/01 09:03:40;;;;;;;15.93;13.10;;;-2.80;70.10;;;;;;6253858;28;20361;-81
2023/12/01 09:06:44;;;;;;;16.60;12.83;;;-2.60;70.00;;;;;;6258891;28;20234;-81
2023/12/01 09:09:47;;;;;;;19.63;13.57;;;-2.40;69.30;;;;;;6259964;28;20330;-80
2023/12/01 09:12:50;;;;;;;18.63;13.13;;;-2.20;69.10;;;;;;6251567;28;20735;-81
2023/12/01 09:15:53;;;;;;;16.53;13.50;;;-2.10;68.60;;;;;;6259941;28;20252;-81
2023/12/01 09:18:58;;;;;;;16.07;13.13;;;-1.90;68.40;;;;;;6252852;28;20276;-82
2023/12/01 09:22:01;;;;;;;18.10;13.97;;;-1.80;68.10;;;;;;6244598;28;20238;-80
2023/12/01 09:25:05;;;;;;;19.07;14.93;;;-1.90;67.50;;;;;;6259814;28;20260;-82
2023/12/01 09:28:10;;;;;;;23.27;14.97;;;-1.90;67.70;;;;;;6261453;28;20238;-82
2023/12/01 09:31:13;;;;;;;20.37;15.07;;;-1.80;67.30;;;;;;6252569;28;20227;-82
2023/12/01 09:34:18;;;;;;;18.13;14.17;;;-1.80;67.60;;;;;;6254379;28;20237;-82
2023/12/01 09:37:21;;;;;;;17.13;13.90;;;-1.60;67.90;;;;;;6253202;28;20307;-81
2023/12/01 09:40:25;;;;;;;17.03;14.80;;;-1.50;67.70;;;;;;6263628;28;20238;-81
2023/12/01 09:43:31;;;;;;;22.03;14.80;;;-1.30;67.30;;;;;;6266142;28;20234;-81
2023/12/01 09:46:36;;;;;;;19.33;14.60;;;-1.30;67.00;;;;;;6262514;28;20253;-83
2023/12/01 09:49:41;;;;;;;17.23;14.37;;;-1.30;67.20;;;;;;6256397;28;20249;-82
2023/12/01 09:52:45;;;;;;;20.30;14.23;;;-1.20;67.10;;;;;;6256284;28;20951;-83
2023/12/01 09:55:48;;;;;;;17.87;13.87;;;-1.10;66.60;;;;;;6262368;28;20249;-82
2023/12/01 09:58:52;;;;;;;16.07;12.77;;;-1.10;66.80;;;;;;6259401;28;20729;-81
2023/12/01 10:01:55;;;;;;;16.33;13.10;;;-1.10;67.00;;;;;;6246839;28;20231;-83
2023/12/01 10:05:02;;;;;;;15.80;13.07;;;-1.00;66.90;;;;;;6263723;28;20400;-83
2023/12/01 10:08:05;;;;;;;16.73;13.07;;;-0.70;66.00;;;;;;6251262;28;20332;-81
2023/12/01 10:11:20;;;;;;;17.13;13.23;;;-0.60;66.40;;;;;;6255456;28;20242;-82
2023/12/01 10:14:23;;;;;;;14.50;12.43;;;-0.70;65.90;;;;;;6257874;28;20277;-84
2023/12/01 10:17:27;;;;;;;12.20;10.83;;;-0.60;66.10;;;;;;6249105;28;20234;-82
2023/12/01 10:20:32;;;;;;;13.23;11.77;;;-0.50;65.70;;;;;;6250217;28;20621;-84
2023/12/01 10:23:36;;;;;;;14.37;12.73;;;-0.50;65.70;;;;;;6263431;28;20372;-84
2023/12/01 10:26:40;;;;;;;14.97;13.43;;;-0.50;65.10;;;;;;6249530;28;20241;-83
2023/12/01 10:29:44;;;;;;;16.13;13.50;;;-0.70;65.80;;;;;;6262108;28;20245;-80
2023/12/01 10:32:48;;;;;;;16.17;14.07;;;-0.70;66.00;;;;;;6253983;28;20264;-81
2023/12/01 10:36:04;;;;;;;16.60;13.33;;;-0.70;65.20;;;;;;6259951;28;20234;-82
2023/12/01 10:39:10;;;;;;;17.50;13.00;;;-0.50;64.90;;;;;;6275734;28;20698;-81
2023/12/01 10:42:14;;;;;;;20.87;14.80;;;-0.50;65.00;;;;;;6271089;28;20663;-81
2023/12/01 10:45:19;;;;;;;16.17;13.90;;;-0.40;65.00;;;;;;6264332;28;20257;-83
2023/12/01 10:48:22;;;;;;;20.23;15.27;;;-0.30;64.70;;;;;;6256631;28;20237;-82
2023/12/01 10:51:28;;;;;;;20.80;15.27;;;-0.40;64.60;;;;;;6255270;28;20820;-83
2023/12/01 10:54:34;;;;;;;19.27;15.50;;;-0.50;64.90;;;;;;6257837;28;20226;-81
2023/12/01 10:57:38;;;;;;;20.20;16.10;;;-0.30;64.80;;;;;;6251397;28;20792;-81
2023/12/01 11:00:41;;;;;;;20.67;15.60;;;-0.20;64.30;;;;;;6246662;28;20325;-81
2023/12/01 11:03:47;;;;;;;18.30;15.40;;;-0.40;65.40;;;;;;6246409;28;20784;-82
2023/12/01 11:07:13;;;;;;;17.67;14.40;;;-0.60;66.10;;;;;;6260721;28;20222;-82
2023/12/01 11:10:23;;;;;;;17.83;13.57;;;-0.40;66.20;;;;;;6262682;28;20234;-81
2023/12/01 11:13:49;;;;;;;18.77;14.00;;;-0.40;66.50;;;;;;6260027;28;20319;-81
2023/12/01 11:16:53;;;;;;;16.67;13.67;;;-0.20;66.00;;;;;;6255074;28;20265;-82
2023/12/01 11:19:57;;;;;;;17.27;12.67;;;-0.10;65.60;;;;;;6250633;28;20314;-82
2023/12/01 11:23:32;;;;;;;13.63;12.23;;;0.00;64.70;;;;;;6254801;28;20241;-81
2023/12/01 11:26:35;;;;;;;14.37;11.80;;;0.00;65.70;;;;;;6250407;28;20562;-81
2023/12/01 11:29:57;;;;;;;14.40;12.73;;;0.00;65.30;;;;;;6262911;28;20257;-81
2023/12/01 11:33:01;;;;;;;17.90;13.70;;;0.20;65.30;;;;;;6252477;28;20234;-80
2023/12/01 11:36:27;;;;;;;16.63;13.37;;;0.30;65.00;;;;;;6254433;28;20230;-81
2023/12/01 11:39:32;;;;;;;18.30;13.33;;;0.30;64.30;;;;;;6262142;28;20233;-80
2023/12/01 11:42:35;;;;;;;17.30;14.07;;;0.30;63.70;;;;;;6257058;28;20230;-82
2023/12/01 11:45:41;;;;;;;18.63;13.63;;;0.00;64.50;;;;;;6262726;28;20234;-82
2023/12/01 11:48:44;;;;;;;22.10;15.23;;;0.00;65.30;;;;;;6255617;28;20233;-81
2023/12/01 11:51:49;;;;;;;20.07;13.73;;;-0.10;65.60;;;;;;6258733;28;23012;-80
2023/12/01 11:54:53;;;;;;;16.07;13.43;;;0.00;65.30;;;;;;6264545;28;20237;-81
2023/12/01 11:57:58;;;;;;;15.50;12.73;;;0.00;65.50;;;;;;6256645;28;20266;-80
2023/12/01 12:01:01;;;;;;;15.67;13.67;;;0.00;65.50;;;;;;6252141;28;20253;-80
2023/12/01 12:04:11;;;;;;;17.67;14.40;;;0.20;65.10;;;;;;6260202;28;20234;-81
2023/12/01 12:07:14;;;;;;;16.20;13.30;;;0.30;65.10;;;;;;6258309;28;20359;-80
2023/12/01 12:10:18;;;;;;;18.57;13.43;;;0.20;64.70;;;;;;6265861;28;20329;-82
2023/12/01 12:13:22;;;;;;;16.20;12.57;;;0.20;64.70;;;;;;6249388;28;20254;-80
2023/12/01 12:16:25;;;;;;;16.77;13.53;;;0.10;64.80;;;;;;6263380;28;20238;-81
2023/12/01 12:19:39;;;;;;;14.40;12.20;;;0.30;64.80;;;;;;6258656;28;20230;-81
2023/12/01 12:22:43;;;;;;;13.97;12.47;;;0.20;64.70;;;;;;6259451;28;20697;-81
2023/12/01 12:25:50;;;;;;;14.87;12.93;;;0.30;64.10;;;;;;6250157;28;20246;-81
2023/12/01 12:28:55;;;;;;;15.40;12.67;;;0.10;64.60;;;;;;6251592;28;20230;-80
2023/12/01 12:32:01;;;;;;;14.20;12.70;;;0.00;64.60;;;;;;6250848;28;20238;-82
2023/12/01 12:35:06;;;;;;;13.13;11.73;;;-0.10;64.70;;;;;;6264667;28;20238;-82
2023/12/01 12:38:10;;;;;;;16.00;12.50;;;-0.10;64.90;;;;;;6257879;28;20293;-82
2023/12/01 12:41:24;;;;;;;14.93;11.90;;;-0.10;65.00;;;;;;6257528;28;20744;-80
2023/12/01 12:44:30;;;;;;;14.43;12.50;;;-0.20;65.10;;;;;;6258848;28;20250;-82
2023/12/01 12:47:38;;;;;;;14.50;12.50;;;-0.20;65.00;;;;;;6262660;28;20276;-82
2023/12/01 12:50:42;;;;;;;13.20;11.90;;;-0.30;65.60;;;;;;6248569;28;20241;-81
2023/12/01 12:53:46;;;;;;;15.07;12.70;;;-0.40;65.60;;;;;;6262798;28;20291;-81
2023/12/01 12:56:50;;;;;;;15.17;13.43;;;-0.50;65.60;;;;;;6262828;28;20237;-81
2023/12/01 12:59:54;;;;;;;16.83;13.33;;;-0.50;65.80;;;;;;6263621;28;20640;-81
2023/12/01 13:02:58;;;;;;;19.27;13.83;;;-0.60;65.60;;;;;;6258491;28;20238;-81
2023/12/01 13:06:01;;;;;;;17.17;13.70;;;-0.90;65.70;;;;;;6268100;28;20248;-80
2023/12/01 13:09:05;;;;;;;17.20;13.43;;;-1.00;66.40;;;;;;6251720;28;20230;-83
2023/12/01 13:12:11;;;;;;;17.57;13.67;;;-1.10;66.70;;;;;;6261333;28;20252;-81
2023/12/01 13:15:15;;;;;;;17.87;13.73;;;-1.20;66.90;;;;;;6258169;28;20234;-83
2023/12/01 13:18:18;;;;;;;20.23;14.10;;;-1.20;66.80;;;;;;6264591;28;20892;-83
2023/12/01 13:21:21;;;;;;;18.03;13.97;;;-1.30;66.90;;;;;;6260042;28;20241;-80
2023/12/01 13:24:25;;;;;;;20.20;14.57;;;-1.30;66.50;;;;;;6265782;28;20241;-84
2023/12/01 13:27:32;;;;;;;19.67;14.47;;;-1.60;67.20;;;;;;6269423;28;20292;-83
2023/12/01 13:30:35;;;;;;;19.93;14.40;;;-1.80;67.80;;;;;;6263299;28;20263;-81
2023/12/01 13:33:42;;;;;;;19.57;14.10;;;-1.80;68.00;;;;;;6264555;28;20231;-80
2023/12/01 13:36:48;;;;;;;20.23;15.30;;;-1.70;67.70;;;;;;6256419;28;20234;-81
2023/12/01 13:39:51;;;;;;;18.10;13.73;;;-1.80;67.20;;;;;;6257762;28;20249;-82
2023/12/01 13:42:55;;;;;;;18.17;14.37;;;-2.10;67.60;;;;;;6260102;28;20433;-81
2023/12/01 13:45:59;;;;;;;19.90;14.00;;;-2.00;67.80;;;;;;6269458;28;20331;-81
2023/12/01 13:49:02;;;;;;;20.17;14.87;;;-2.10;67.70;;;;;;6260984;28;20325;-81
2023/12/01 13:52:06;;;;;;;19.97;14.77;;;-2.30;68.00;;;;;;6254382;28;20245;-81
2023/12/01 13:55:10;;;;;;;21.30;15.03;;;-2.40;68.70;;;;;;6269468;28;20245;-80
2023/12/01 13:58:14;;;;;;;23.10;14.90;;;-2.40;68.90;;;;;;6258249;28;20279;-82
2023/12/01 14:01:18;;;;;;;23.03;15.93;;;-2.50;68.70;;;;;;6267003;28;20283;-81
2023/12/01 14:04:21;;;;;;;22.80;15.13;;;-2.50;68.70;;;;;;6257000;28;20248;-80
2023/12/01 14:07:24;;;;;;;21.10;15.43;;;-2.70;68.90;;;;;;6266046;28;20234;-79
2023/12/01 14:10:28;;;;;;;25.63;16.30;;;-2.90;69.00;;;;;;6260251;28;20249;-80
2023/12/01 14:13:32;;;;;;;22.73;15.90;;;-3.20;69.80;;;;;;6258353;28;20335;-80
2023/12/01 14:16:35;;;;;;;27.97;16.07;;;-3.50;70.40;;;;;;6259321;28;20249;-82
2023/12/01 14:19:38;;;;;;;24.20;15.70;;;-3.70;71.70;;;;;;6255461;28;20230;-80
2023/12/01 14:22:41;;;;;;;28.90;17.53;;;-3.80;72.20;;;;;;6254067;28;20246;-79
2023/12/01 14:25:45;;;;;;;24.67;16.40;;;-3.80;72.50;;;;;;6261053;28;20234;-83
2023/12/01 14:28:49;;;;;;;28.03;17.17;;;-3.80;72.60;;;;;;6249419;28;20277;-79
2023/12/01 14:31:53;;;;;;;26.27;17.87;;;-3.80;72.60;;;;;;6260845;28;20234;-78
2023/12/01 14:35:01;;;;;;;30.07;18.07;;;-4.00;73.10;;;;;;6252410;28;20268;-82
2023/12/01 14:38:04;;;;;;;23.40;17.00;;;-4.00;73.20;;;;;;6263825;28;20311;-81
2023/12/01 14:41:08;;;;;;;26.77;18.13;;;-4.10;73.60;;;;;;6255512;28;20235;-82
2023/12/01 14:44:13;;;;;;;28.37;18.17;;;-4.20;74.20;;;;;;6259364;28;20246;-82
2023/12/01 14:47:16;;;;;;;28.73;18.00;;;-4.30;74.40;;;;;;6257609;28;20239;-80
2023/12/01 14:50:19;;;;;;;27.60;17.13;;;-4.40;74.70;;;;;;6263541;28;20300;-79
2023/12/01 14:53:22;;;;;;;25.37;16.70;;;-4.50;75.20;;;;;;6263611;28;20248;-82
2023/12/01 14:56:25;;;;;;;29.80;17.50;;;-4.50;75.50;;;;;;6260321;28;20869;-79
2023/12/01 14:59:30;;;;;;;30.60;18.57;;;-4.50;75.40;;;;;;6264728;28;20237;-80
2023/12/01 15:02:33;;;;;;;28.77;18.17;;;-4.40;75.40;;;;;;6260756;28;20246;-81
2023/12/01 15:05:36;;;;;;;29.77;18.03;;;-4.50;75.40;;;;;;6254649;28;20318;-81
2023/12/01 15:08:39;;;;;;;32.63;18.87;;;-4.50;75.80;;;;;;6262165;28;20230;-81
2023/12/01 15:11:44;;;;;;;27.03;17.47;;;-4.50;76.10;;;;;;6257227;28;20245;-81
2023/12/01 15:14:49;;;;;;;30.77;16.67;;;-4.40;76.30;;;;;;6268589;28;20281;-82
2023/12/01 15:17:52;;;;;;;27.93;17.57;;;-4.40;76.30;;;;;;6268648;28;20234;-78
2023/12/01 15:20:56;;;;;;;28.57;17.30;;;-4.40;76.20;;;;;;6259541;28;20304;-79
2023/12/01 15:23:59;;;;;;;30.57;18.13;;;-4.40;76.10;;;;;;6267284;28;20248;-79
2023/12/01 15:27:02;;;;;;;28.30;17.67;;;-4.60;76.00;;;;;;6268175;28;20245;-82
2023/12/01 15:30:07;;;;;;;29.17;18.00;;;-4.60;76.30;;;;;;6270108;28;20816;-80
2023/12/01 15:33:11;;;;;;;25.93;17.23;;;-4.70;76.50;;;;;;6268869;28;20244;-79
2023/12/01 15:36:14;;;;;;;25.53;16.60;;;-4.70;76.50;;;;;;6260583;28;20265;-81
2023/12/01 15:39:17;;;;;;;28.57;17.73;;;-4.70;76.80;;;;;;6270245;28;20317;-80